createdAt,value
2018-02-25T00:01:26.359Z,-4.43
2018-02-25T00:03:54.049Z,-4.46
2018-02-25T00:06:21.788Z,-4.49
2018-02-25T00:08:49.552Z,-4.52
2018-02-25T00:11:17.316Z,-4.55
2018-02-25T00:13:45.081Z,-4.59
2018-02-25T00:16:12.804Z,-4.62
2018-02-25T00:18:40.555Z,-4.66
2018-02-25T00:21:08.220Z,-4.71
2018-02-25T00:23:35.922Z,-4.75
2018-02-25T00:26:03.704Z,-4.80
2018-02-25T00:28:31.468Z,-4.86
2018-02-25T00:30:59.240Z,-4.90
2018-02-25T00:33:26.948Z,-4.94
2018-02-25T00:35:54.628Z,-4.97
2018-02-25T00:38:22.328Z,-5.00
2018-02-25T00:40:50.101Z,-4.98
2018-02-25T00:43:17.860Z,-4.96
2018-02-25T00:45:45.543Z,-4.93
2018-02-25T00:48:13.574Z,-4.91
2018-02-25T00:50:41.280Z,-4.87
2018-02-25T00:53:09.023Z,-4.84
2018-02-25T00:55:36.728Z,-4.81
2018-02-25T00:58:04.452Z,-4.78
2018-02-25T01:00:32.212Z,-4.75
2018-02-25T01:02:59.884Z,-4.74
2018-02-25T01:05:27.644Z,-4.72
2018-02-25T01:07:55.332Z,-4.68
2018-02-25T01:10:23.029Z,-4.64
2018-02-25T01:12:50.703Z,-4.61
2018-02-25T01:15:18.504Z,-4.60
2018-02-25T01:17:46.188Z,-4.59
2018-02-25T01:20:13.912Z,-4.58
2018-02-25T01:22:41.588Z,-4.56
2018-02-25T01:25:09.264Z,-4.52
2018-02-25T01:27:36.972Z,-4.51
2018-02-25T01:30:04.652Z,-4.49
2018-02-25T01:32:32.349Z,-4.48
2018-02-25T01:35:00.069Z,-4.47
2018-02-25T01:37:27.772Z,-4.45
2018-02-25T01:39:55.552Z,-4.42
2018-02-25T01:42:23.256Z,-4.39
2018-02-25T01:44:50.944Z,-4.36
2018-02-25T01:47:18.649Z,-4.32
2018-02-25T01:49:46.498Z,-4.28
2018-02-25T01:52:14.253Z,-4.24
2018-02-25T01:54:41.932Z,-4.21
2018-02-25T01:57:09.698Z,-4.17
2018-02-25T01:59:37.459Z,-4.13
2018-02-25T02:02:05.224Z,-4.08
2018-02-25T02:04:32.928Z,-4.06
2018-02-25T02:07:00.608Z,-4.03
2018-02-25T02:09:28.425Z,-4.01
2018-02-25T02:11:56.188Z,-3.99
2018-02-25T02:14:23.883Z,-3.98
2018-02-25T02:16:51.564Z,-3.96
2018-02-25T02:19:19.375Z,-3.96
2018-02-25T02:21:47.149Z,-3.95
2018-02-25T02:24:14.832Z,-3.97
2018-02-25T02:26:42.540Z,-4.00
2018-02-25T02:29:10.226Z,-4.03
2018-02-25T02:31:37.929Z,-4.08
2018-02-25T02:34:05.609Z,-4.13
2018-02-25T02:36:33.317Z,-4.20
2018-02-25T02:39:01.941Z,-4.27
2018-02-25T02:41:29.644Z,-4.35
2018-02-25T02:43:57.325Z,-4.43
2018-02-25T02:46:25.029Z,-4.50
2018-02-25T02:48:52.772Z,-4.58
2018-02-25T02:51:20.488Z,-4.65
2018-02-25T02:53:48.173Z,-4.71
2018-02-25T02:56:15.905Z,-4.74
2018-02-25T02:58:43.624Z,-4.76
2018-02-25T03:01:11.396Z,-4.78
2018-02-25T03:03:39.118Z,-4.78
2018-02-25T03:06:06.806Z,-4.78
2018-02-25T03:08:34.520Z,-4.78
2018-02-25T03:11:02.255Z,-4.79
2018-02-25T03:13:29.952Z,-4.78
2018-02-25T03:15:57.637Z,-4.77
2018-02-25T03:18:25.444Z,-4.76
2018-02-25T03:20:53.124Z,-4.75
2018-02-25T03:23:20.824Z,-4.77
2018-02-25T03:25:48.504Z,-4.76
2018-02-25T03:28:16.209Z,-4.78
2018-02-25T03:30:43.966Z,-4.79
2018-02-25T03:33:11.640Z,-4.82
2018-02-25T03:35:39.388Z,-4.83
2018-02-25T03:38:07.070Z,-4.85
2018-02-25T03:40:34.777Z,-4.88
2018-02-25T03:43:02.457Z,-4.92
2018-02-25T03:45:30.160Z,-4.95
2018-02-25T03:47:57.913Z,-5.00
2018-02-25T03:50:25.676Z,-5.04
2018-02-25T03:52:53.368Z,-5.08
2018-02-25T03:55:21.110Z,-5.12
2018-02-25T03:57:48.801Z,-5.15
2018-02-25T04:00:16.532Z,-5.18
2018-02-25T04:02:44.297Z,-5.21
2018-02-25T04:05:12.038Z,-5.22
2018-02-25T04:07:39.720Z,-5.26
2018-02-25T04:10:07.502Z,-5.29
2018-02-25T04:12:35.201Z,-5.32
2018-02-25T04:15:02.926Z,-5.35
2018-02-25T04:17:30.632Z,-5.37
2018-02-25T04:19:58.348Z,-5.40
2018-02-25T04:22:26.054Z,-5.44
2018-02-25T04:24:53.741Z,-5.47
2018-02-25T04:27:21.444Z,-5.51
2018-02-25T04:29:49.132Z,-5.55
2018-02-25T04:32:16.833Z,-5.59
2018-02-25T04:34:44.525Z,-5.61
2018-02-25T04:37:12.228Z,-5.61
2018-02-25T04:39:39.960Z,-5.61
2018-02-25T04:42:07.719Z,-5.61
2018-02-25T04:44:35.496Z,-5.59
2018-02-25T04:47:03.251Z,-5.59
2018-02-25T04:49:31.016Z,-5.59
2018-02-25T04:51:58.784Z,-5.60
2018-02-25T04:54:26.464Z,-5.59
2018-02-25T04:56:54.217Z,-5.59
2018-02-25T04:59:21.924Z,-5.56
2018-02-25T05:01:49.603Z,-5.54
2018-02-25T05:04:17.420Z,-5.48
2018-02-25T05:06:45.177Z,-5.42
2018-02-25T05:09:12.876Z,-5.35
2018-02-25T05:11:40.561Z,-5.28
2018-02-25T05:14:08.266Z,-5.22
2018-02-25T05:16:35.953Z,-5.15
2018-02-25T05:19:03.660Z,-5.09
2018-02-25T05:21:31.353Z,-5.04
2018-02-25T05:23:59.125Z,-4.99
2018-02-25T05:26:26.804Z,-4.96
2018-02-25T05:28:54.505Z,-4.92
2018-02-25T05:31:22.200Z,-4.88
2018-02-25T05:33:49.883Z,-4.85
2018-02-25T05:36:17.589Z,-4.83
2018-02-25T05:38:45.270Z,-4.80
2018-02-25T05:41:12.977Z,-4.77
2018-02-25T05:43:40.789Z,-4.73
2018-02-25T05:46:08.493Z,-4.71
2018-02-25T05:48:36.187Z,-4.67
2018-02-25T05:51:03.896Z,-4.64
2018-02-25T05:53:31.582Z,-4.62
2018-02-25T05:55:59.347Z,-4.61
2018-02-25T05:58:27.031Z,-4.61
2018-02-25T06:00:54.748Z,-4.60
2018-02-25T06:03:22.429Z,-4.59
2018-02-25T06:05:50.128Z,-4.59
2018-02-25T06:08:17.878Z,-4.59
2018-02-25T06:10:45.585Z,-4.57
2018-02-25T06:13:13.268Z,-4.54
2018-02-25T06:15:41.069Z,-4.51
2018-02-25T06:18:08.804Z,-4.48
2018-02-25T06:20:36.480Z,-4.44
2018-02-25T06:23:04.237Z,-4.41
2018-02-25T06:25:31.923Z,-4.37
2018-02-25T06:27:59.633Z,-4.33
2018-02-25T06:30:27.308Z,-4.28
2018-02-25T06:32:55.132Z,-4.24
2018-02-25T06:35:22.808Z,-4.20
2018-02-25T06:37:50.544Z,-4.17
2018-02-25T06:40:18.226Z,-4.13
2018-02-25T06:42:45.939Z,-4.09
2018-02-25T06:45:13.626Z,-4.07
2018-02-25T06:47:41.336Z,-4.03
2018-02-25T06:50:09.026Z,-3.97
2018-02-25T06:52:36.829Z,-3.93
2018-02-25T06:55:04.594Z,-3.89
2018-02-25T06:57:32.296Z,-3.83
2018-02-25T06:59:59.979Z,-3.78
2018-02-25T07:02:27.788Z,-3.72
2018-02-25T07:04:55.551Z,-3.64
2018-02-25T07:07:23.320Z,-3.57
2018-02-25T07:09:51.081Z,-3.52
2018-02-25T07:12:18.853Z,-3.48
2018-02-25T07:14:46.560Z,-3.44
2018-02-25T07:17:14.272Z,-3.40
2018-02-25T07:19:41.972Z,-3.37
2018-02-25T07:22:09.704Z,-3.33
2018-02-25T07:24:37.468Z,-3.28
2018-02-25T07:27:05.149Z,-3.23
2018-02-25T07:29:32.895Z,-3.16
2018-02-25T07:32:00.578Z,-3.09
2018-02-25T07:34:28.325Z,-3.02
2018-02-25T07:36:56.087Z,-2.95
2018-02-25T07:39:23.792Z,-2.88
2018-02-25T07:41:51.477Z,-2.81
2018-02-25T07:44:19.188Z,-2.77
2018-02-25T07:46:46.872Z,-2.71
2018-02-25T07:49:14.607Z,-2.68
2018-02-25T07:51:42.283Z,-2.63
2018-02-25T07:54:10.041Z,-2.59
2018-02-25T07:56:37.741Z,-2.53
2018-02-25T07:59:05.473Z,-2.46
2018-02-25T08:01:33.156Z,-2.38
2018-02-25T08:04:00.879Z,-2.30
2018-02-25T08:06:28.557Z,-2.21
2018-02-25T08:08:56.240Z,-2.18
2018-02-25T08:11:23.968Z,-2.15
2018-02-25T08:13:51.648Z,-2.12
2018-02-25T08:16:19.357Z,-2.10
2018-02-25T08:18:47.075Z,-2.09
2018-02-25T08:21:14.849Z,-2.10
2018-02-25T08:23:42.613Z,-2.09
2018-02-25T08:26:10.321Z,-2.05
2018-02-25T08:28:38.044Z,-2.00
2018-02-25T08:31:05.744Z,-1.96
2018-02-25T08:33:33.428Z,-1.90
2018-02-25T08:36:01.136Z,-1.84
2018-02-25T08:38:28.821Z,-1.73
2018-02-25T08:40:56.556Z,-1.60
2018-02-25T08:43:24.320Z,-1.47
2018-02-25T08:45:52.092Z,-1.37
2018-02-25T08:48:19.809Z,-1.32
2018-02-25T08:50:47.489Z,-1.25
2018-02-25T08:53:15.201Z,-1.18
2018-02-25T08:55:42.948Z,-1.13
2018-02-25T08:58:10.708Z,-1.09
2018-02-25T09:00:38.393Z,-1.04
2018-02-25T09:03:06.105Z,-1.01
2018-02-25T09:05:33.792Z,-0.98
2018-02-25T09:08:01.559Z,-0.93
2018-02-25T09:10:29.337Z,-0.91
2018-02-25T09:12:57.078Z,-0.89
2018-02-25T09:15:24.859Z,-0.90
2018-02-25T09:17:52.557Z,-0.90
2018-02-25T09:20:20.284Z,-0.91
2018-02-25T09:22:48.060Z,-0.90
2018-02-25T09:25:15.825Z,-0.86
2018-02-25T09:27:43.589Z,-0.82
2018-02-25T09:30:11.332Z,-0.77
2018-02-25T09:32:39.016Z,-0.73
2018-02-25T09:35:06.771Z,-0.68
2018-02-25T09:37:34.456Z,-0.63
2018-02-25T09:40:02.199Z,-0.59
2018-02-25T09:42:29.888Z,-0.56
2018-02-25T09:44:57.596Z,-0.50
2018-02-25T09:47:25.275Z,-0.46
2018-02-25T09:49:53.065Z,-0.39
2018-02-25T09:52:20.750Z,-0.34
2018-02-25T09:54:48.478Z,-0.30
2018-02-25T09:57:16.164Z,-0.25
2018-02-25T09:59:43.920Z,-0.20
2018-02-25T10:02:11.628Z,-0.14
2018-02-25T10:04:39.329Z,-0.03
2018-02-25T10:07:07.112Z,0.07
2018-02-25T10:09:34.897Z,0.19
2018-02-25T10:12:02.645Z,0.29
2018-02-25T10:14:30.404Z,0.42
2018-02-25T10:16:58.068Z,0.55
2018-02-25T10:19:25.752Z,0.65
2018-02-25T10:21:53.503Z,0.69
2018-02-25T10:24:21.264Z,0.74
2018-02-25T10:26:48.996Z,0.80
2018-02-25T10:29:16.596Z,0.85
2018-02-25T10:31:44.198Z,0.90
2018-02-25T10:34:11.829Z,0.94
2018-02-25T10:36:39.450Z,0.98
2018-02-25T10:39:07.068Z,1.02
2018-02-25T10:41:34.667Z,1.03
2018-02-25T10:44:02.367Z,1.02
2018-02-25T10:46:29.969Z,0.99
2018-02-25T10:48:57.684Z,0.96
2018-02-25T10:51:25.356Z,0.92
2018-02-25T10:53:53.013Z,0.89
2018-02-25T10:56:20.669Z,0.85
2018-02-25T10:58:48.293Z,0.80
2018-02-25T11:01:15.896Z,0.78
2018-02-25T11:03:43.525Z,0.77
2018-02-25T11:06:11.136Z,0.80
2018-02-25T11:08:38.746Z,0.89
2018-02-25T11:11:06.372Z,1.05
2018-02-25T11:13:33.972Z,1.27
2018-02-25T11:16:01.596Z,1.45
2018-02-25T11:18:29.227Z,1.62
2018-02-25T11:20:56.852Z,1.85
2018-02-25T11:23:24.461Z,2.04
2018-02-25T11:25:52.088Z,2.19
2018-02-25T11:28:19.709Z,2.32
2018-02-25T11:30:47.335Z,2.37
2018-02-25T11:33:14.936Z,2.36
2018-02-25T11:35:42.671Z,2.33
2018-02-25T11:38:10.333Z,2.24
2018-02-25T11:40:37.965Z,2.20
2018-02-25T11:43:05.652Z,2.12
2018-02-25T11:45:33.316Z,2.01
2018-02-25T11:48:00.940Z,1.85
2018-02-25T11:50:28.554Z,1.74
2018-02-25T11:52:56.186Z,1.65
2018-02-25T11:55:23.937Z,1.55
2018-02-25T11:57:51.628Z,1.43
2018-02-25T12:00:19.243Z,1.31
2018-02-25T12:02:46.890Z,1.25
2018-02-25T12:05:14.515Z,1.20
2018-02-25T12:07:42.293Z,1.18
2018-02-25T12:10:09.976Z,1.24
2018-02-25T12:12:37.709Z,1.43
2018-02-25T12:15:05.321Z,1.71
2018-02-25T12:17:33.040Z,1.75
2018-02-25T12:20:00.643Z,1.67
2018-02-25T12:22:28.362Z,1.55
2018-02-25T12:24:55.998Z,1.43
2018-02-25T12:27:23.604Z,1.32
2018-02-25T12:29:51.244Z,1.22
2018-02-25T12:32:18.932Z,1.11
2018-02-25T12:34:46.640Z,1.02
2018-02-25T12:37:14.246Z,0.93
2018-02-25T12:39:41.944Z,0.87
2018-02-25T12:42:09.624Z,0.83
2018-02-25T12:44:37.323Z,0.82
2018-02-25T12:47:05.006Z,0.80
2018-02-25T12:49:32.708Z,0.78
2018-02-25T12:52:00.414Z,0.78
2018-02-25T12:54:28.136Z,0.89
2018-02-25T12:56:55.853Z,1.09
2018-02-25T12:59:23.608Z,1.17
2018-02-25T13:01:51.284Z,1.30
2018-02-25T13:04:18.945Z,1.55
2018-02-25T13:06:46.569Z,1.79
2018-02-25T13:09:14.168Z,1.84
2018-02-25T13:11:41.792Z,1.81
2018-02-25T13:14:09.397Z,1.75
2018-02-25T13:16:37.048Z,1.69
2018-02-25T13:19:04.665Z,1.60
2018-02-25T13:21:32.291Z,1.47
2018-02-25T13:24:00.037Z,1.36
2018-02-25T13:26:27.744Z,1.30
2018-02-25T13:28:55.423Z,1.23
2018-02-25T13:31:23.225Z,1.25
2018-02-25T13:33:50.905Z,1.27
2018-02-25T13:36:18.665Z,1.27
2018-02-25T13:38:46.272Z,1.31
2018-02-25T13:41:13.892Z,1.34
2018-02-25T13:43:41.548Z,1.31
2018-02-25T13:46:09.207Z,1.34
2018-02-25T13:48:36.893Z,1.35
2018-02-25T13:51:04.535Z,1.45
2018-02-25T13:53:32.165Z,1.56
2018-02-25T13:55:59.768Z,1.62
2018-02-25T13:58:27.418Z,1.64
2018-02-25T14:00:55.079Z,1.55
2018-02-25T14:03:22.743Z,1.46
2018-02-25T14:05:50.358Z,1.36
2018-02-25T14:08:17.976Z,1.28
2018-02-25T14:10:45.632Z,1.18
2018-02-25T14:13:13.302Z,1.04
2018-02-25T14:15:40.906Z,0.87
2018-02-25T14:18:08.604Z,0.72
2018-02-25T14:20:36.280Z,0.57
2018-02-25T14:23:04.048Z,0.46
2018-02-25T14:25:31.741Z,0.32
2018-02-25T14:27:59.426Z,0.23
2018-02-25T14:30:27.135Z,0.11
2018-02-25T14:32:54.829Z,-0.01
2018-02-25T14:35:22.796Z,-0.12
2018-02-25T14:37:50.480Z,-0.18
2018-02-25T14:40:18.200Z,-0.22
2018-02-25T14:42:45.888Z,-0.23
2018-02-25T14:45:13.631Z,-0.22
2018-02-25T14:47:41.402Z,-0.22
2018-02-25T14:50:09.166Z,-0.28
2018-02-25T14:52:38.261Z,-0.34
2018-02-25T14:55:06.024Z,-0.36
2018-02-25T14:57:33.792Z,-0.34
2018-02-25T15:00:01.497Z,-0.30
2018-02-25T15:02:29.220Z,-0.23
2018-02-25T15:04:56.945Z,-0.16
2018-02-25T15:07:24.624Z,-0.13
2018-02-25T15:09:52.304Z,-0.08
2018-02-25T15:12:20.077Z,-0.06
2018-02-25T15:14:47.911Z,-0.06
2018-02-25T15:17:15.616Z,-0.07
2018-02-25T15:19:43.377Z,-0.08
2018-02-25T15:22:11.097Z,-0.13
2018-02-25T15:24:38.781Z,-0.17
2018-02-25T15:27:06.569Z,-0.20
2018-02-25T15:29:34.332Z,-0.24
2018-02-25T15:32:02.040Z,-0.29
2018-02-25T15:34:29.858Z,-0.31
2018-02-25T15:36:57.582Z,-0.37
2018-02-25T15:39:25.293Z,-0.44
2018-02-25T15:41:53.057Z,-0.51
2018-02-25T15:44:20.753Z,-0.56
2018-02-25T15:46:48.455Z,-0.61
2018-02-25T15:49:16.139Z,-0.64
2018-02-25T15:51:43.846Z,-0.66
2018-02-25T15:54:11.569Z,-0.67
2018-02-25T15:56:39.335Z,-0.71
2018-02-25T15:59:07.012Z,-0.76
2018-02-25T16:01:35.620Z,-0.82
2018-02-25T16:04:03.357Z,-0.88
2018-02-25T16:06:31.037Z,-0.94
2018-02-25T16:08:58.789Z,-1.00
2018-02-25T16:11:26.582Z,-1.05
2018-02-25T16:13:54.277Z,-1.09
2018-02-25T16:16:21.971Z,-1.13
2018-02-25T16:18:49.677Z,-1.17
2018-02-25T16:21:17.405Z,-1.21
2018-02-25T16:23:45.164Z,-1.22
2018-02-25T16:26:12.848Z,-1.22
2018-02-25T16:28:40.573Z,-1.23
2018-02-25T16:31:08.366Z,-1.25
2018-02-25T16:33:36.097Z,-1.28
2018-02-25T16:36:04.833Z,-1.33
2018-02-25T16:38:32.677Z,-1.36
2018-02-25T16:41:00.380Z,-1.41
2018-02-25T16:43:28.107Z,-1.44
2018-02-25T16:45:55.808Z,-1.49
2018-02-25T16:48:23.540Z,-1.54
2018-02-25T16:50:51.245Z,-1.60
2018-02-25T16:53:18.933Z,-1.67
2018-02-25T16:55:46.634Z,-1.73
2018-02-25T16:58:14.400Z,-1.80
2018-02-25T17:00:42.160Z,-1.87
2018-02-25T17:03:09.924Z,-1.94
2018-02-25T17:05:37.633Z,-2.02
2018-02-25T17:08:05.321Z,-2.07
2018-02-25T17:10:33.043Z,-2.10
2018-02-25T17:13:00.785Z,-2.12
2018-02-25T17:15:28.553Z,-2.14
2018-02-25T17:17:56.262Z,-2.15
2018-02-25T17:20:23.944Z,-2.16
2018-02-25T17:22:51.744Z,-2.17
2018-02-25T17:25:19.428Z,-2.17
2018-02-25T17:27:47.169Z,-2.19
2018-02-25T17:30:14.940Z,-2.19
2018-02-25T17:32:42.640Z,-2.20
2018-02-25T17:35:10.374Z,-2.21
2018-02-25T17:37:38.093Z,-2.22
2018-02-25T17:40:05.796Z,-2.22
2018-02-25T17:42:33.507Z,-2.22
2018-02-25T17:45:01.188Z,-2.23
2018-02-25T17:47:28.912Z,-2.26
2018-02-25T17:49:56.644Z,-2.28
2018-02-25T17:52:24.333Z,-2.31
2018-02-25T17:54:52.082Z,-2.35
2018-02-25T17:57:19.847Z,-2.40
2018-02-25T17:59:47.608Z,-2.46
2018-02-25T18:02:15.367Z,-2.51
2018-02-25T18:04:43.077Z,-2.55
2018-02-25T18:07:10.808Z,-2.61
2018-02-25T18:09:38.571Z,-2.68
2018-02-25T18:12:06.329Z,-2.73
2018-02-25T18:14:34.101Z,-2.79
2018-02-25T18:17:01.860Z,-2.86
2018-02-25T18:19:29.658Z,-2.93
2018-02-25T18:24:36.730Z,-3.07
2018-02-25T18:27:04.492Z,-3.12
2018-02-25T18:29:32.204Z,-3.20
2018-02-25T18:31:59.892Z,-3.27
2018-02-25T18:34:27.624Z,-3.31
2018-02-25T18:36:55.304Z,-3.37
2018-02-25T18:39:23.024Z,-3.41
2018-02-25T18:41:50.777Z,-3.48
2018-02-25T18:44:18.549Z,-3.55
2018-02-25T18:46:46.256Z,-3.60
2018-02-25T18:49:13.978Z,-3.64
2018-02-25T18:51:41.745Z,-3.68
2018-02-25T18:54:09.499Z,-3.72
2018-02-25T18:56:37.200Z,-3.73
2018-02-25T18:59:04.936Z,-3.75
2018-02-25T19:01:32.701Z,-3.78
2018-02-25T19:04:00.460Z,-3.80
2018-02-25T19:06:28.229Z,-3.83
2018-02-25T19:08:55.992Z,-3.86
2018-02-25T19:11:23.720Z,-3.87
2018-02-25T19:13:51.425Z,-3.88
2018-02-25T19:16:19.243Z,-3.89
2018-02-25T19:18:46.971Z,-3.91
2018-02-25T19:21:14.665Z,-3.97
2018-02-25T19:23:42.489Z,-4.02
2018-02-25T19:26:10.247Z,-4.08
2018-02-25T19:28:37.950Z,-4.12
2018-02-25T19:31:05.685Z,-4.17
2018-02-25T19:33:33.398Z,-4.19
2018-02-25T19:39:09.492Z,-4.19
2018-02-25T19:41:42.841Z,-4.17
2018-02-25T19:44:10.584Z,-4.13
2018-02-25T19:46:38.285Z,-4.07
2018-02-25T19:49:06.016Z,-4.04
2018-02-25T19:51:33.776Z,-4.02
2018-02-25T19:54:01.556Z,-4.02
2018-02-25T19:56:29.316Z,-4.00
2018-02-25T19:58:57.010Z,-3.99
2018-02-25T20:01:24.723Z,-3.99
2018-02-25T20:03:52.504Z,-3.95
2018-02-25T20:06:20.264Z,-3.91
2018-02-25T20:08:48.028Z,-3.84
2018-02-25T20:11:15.802Z,-3.77
2018-02-25T20:13:43.496Z,-3.72
2018-02-25T20:16:11.201Z,-3.66
2018-02-25T20:18:38.927Z,-3.61
2018-02-25T20:21:06.632Z,-3.57
2018-02-25T20:23:34.312Z,-3.54
2018-02-25T20:26:02.085Z,-3.53
2018-02-25T20:28:29.765Z,-3.52
2018-02-25T20:30:57.513Z,-3.54
2018-02-25T20:33:25.228Z,-3.55
2018-02-25T20:35:53.032Z,-3.59
2018-02-25T20:38:20.708Z,-3.62
2018-02-25T20:40:48.470Z,-3.66
2018-02-25T20:43:16.172Z,-3.68
2018-02-25T20:45:43.985Z,-3.72
2018-02-25T20:48:11.693Z,-3.73
2018-02-25T20:50:39.426Z,-3.74
2018-02-25T20:53:07.137Z,-3.74
2018-02-25T20:55:34.950Z,-3.74
2018-02-25T20:58:02.724Z,-3.74
2018-02-25T21:00:30.489Z,-3.75
2018-02-25T21:02:58.248Z,-3.75
2018-02-25T21:05:25.933Z,-3.76
2018-02-25T21:07:53.724Z,-3.78
2018-02-25T21:10:21.457Z,-3.80
2018-02-25T21:12:49.141Z,-3.84
2018-02-25T21:15:16.855Z,-3.90
2018-02-25T21:20:11.541Z,-3.99
2018-02-25T21:22:39.220Z,-4.05
2018-02-25T21:25:06.933Z,-4.12
2018-02-25T21:27:34.681Z,-4.20
2018-02-25T21:30:02.393Z,-4.30
2018-02-25T21:32:30.068Z,-4.39
2018-02-25T21:34:57.776Z,-4.45
2018-02-25T21:37:25.534Z,-4.51
2018-02-25T21:39:53.253Z,-4.57
2018-02-25T21:42:20.956Z,-4.62
2018-02-25T21:44:48.728Z,-4.67
2018-02-25T21:47:16.501Z,-4.70
2018-02-25T21:49:44.184Z,-4.73
2018-02-25T21:52:11.921Z,-4.75
2018-02-25T21:54:45.357Z,-4.80
2018-02-25T21:57:18.591Z,-4.85
2018-02-25T22:03:11.529Z,-4.96
2018-02-25T22:05:39.220Z,-5.00
2018-02-25T22:08:07.019Z,-5.04
2018-02-25T22:10:34.786Z,-5.07
2018-02-25T22:13:02.557Z,-5.12
2018-02-25T22:15:30.312Z,-5.18
2018-02-25T22:17:58.031Z,-5.25
2018-02-25T22:20:25.748Z,-5.31
2018-02-25T22:22:53.462Z,-5.35
2018-02-25T22:25:21.168Z,-5.43
2018-02-25T22:27:48.932Z,-5.50
2018-02-25T22:30:16.660Z,-5.59
2018-02-25T22:32:44.369Z,-5.67
2018-02-25T22:35:12.129Z,-5.74
2018-02-25T22:37:39.899Z,-5.81
2018-02-25T22:40:07.657Z,-5.88
2018-02-25T22:42:35.348Z,-5.93
2018-02-25T22:45:03.083Z,-5.97
2018-02-25T22:47:30.760Z,-6.02
2018-02-25T22:49:58.518Z,-6.06
2018-02-25T22:52:26.280Z,-6.13
2018-02-25T22:54:53.984Z,-6.16
2018-02-25T22:57:21.688Z,-6.21
2018-02-25T22:59:49.407Z,-6.27
2018-02-25T23:02:17.138Z,-6.31
2018-02-25T23:04:44.895Z,-6.36
2018-02-25T23:07:12.604Z,-6.39
2018-02-25T23:09:40.297Z,-6.43
2018-02-25T23:12:07.993Z,-6.46
2018-02-25T23:14:35.760Z,-6.48
2018-02-25T23:17:03.461Z,-6.50
2018-02-25T23:19:31.188Z,-6.53
2018-02-25T23:21:58.948Z,-6.55
2018-02-25T23:24:26.711Z,-6.57
2018-02-25T23:26:54.452Z,-6.59
2018-02-25T23:29:22.117Z,-6.60
2018-02-25T23:31:49.908Z,-6.60
2018-02-25T23:34:17.592Z,-6.59
2018-02-25T23:36:45.335Z,-6.58
2018-02-25T23:39:13.039Z,-6.56
2018-02-25T23:41:40.729Z,-6.55
2018-02-25T23:44:08.440Z,-6.54
2018-02-25T23:46:36.128Z,-6.54
2018-02-25T23:49:03.861Z,-6.53
2018-02-25T23:51:31.626Z,-6.53
2018-02-25T23:53:59.332Z,-6.52
2018-02-25T23:56:27.020Z,-6.53
2018-02-25T23:58:54.724Z,-6.51
